createdAt,value
2023-03-24T00:01:29.881Z,76.27
2023-03-24T00:03:59.332Z,76.46
2023-03-24T00:06:27.840Z,75.58
2023-03-24T00:08:56.135Z,76.33
2023-03-24T00:11:26.614Z,74.88
2023-03-24T00:13:58.708Z,75.13
2023-03-24T00:16:27.088Z,75.85
2023-03-24T00:18:55.651Z,75.68
2023-03-24T00:21:25.991Z,74.57
2023-03-24T00:23:55.971Z,74.92
2023-03-24T00:26:26.917Z,76.01
2023-03-24T00:28:57.265Z,75.57
2023-03-24T00:31:25.982Z,74.81
2023-03-24T00:33:55.025Z,75.36
2023-03-24T00:36:25.005Z,75.53
2023-03-24T00:38:54.513Z,76.43
2023-03-24T00:41:27.230Z,76.68
2023-03-24T00:43:59.358Z,78.03
2023-03-24T00:46:29.111Z,79.40
2023-03-24T00:49:02.519Z,78.24
2023-03-24T00:51:33.515Z,77.72
2023-03-24T00:54:02.443Z,77.19
2023-03-24T00:56:32.552Z,79.21
2023-03-24T00:59:03.412Z,78.93
2023-03-24T01:01:35.645Z,77.16
2023-03-24T01:04:06.228Z,78.18
2023-03-24T01:06:37.272Z,78.51
2023-03-24T01:09:06.892Z,78.51
2023-03-24T01:11:40.082Z,76.73
2023-03-24T01:14:11.345Z,75.51
2023-03-24T01:16:39.795Z,76.40
2023-03-24T01:19:09.485Z,76.87
2023-03-24T01:21:39.092Z,77.47
2023-03-24T01:24:07.895Z,76.14
2023-03-24T01:26:36.439Z,77.16
2023-03-24T01:29:04.848Z,75.62
2023-03-24T01:31:34.782Z,75.24
2023-03-24T01:34:03.210Z,74.64
2023-03-24T01:36:34.441Z,74.58
2023-03-24T01:39:02.840Z,75.33
2023-03-24T01:41:36.086Z,76.27
2023-03-24T01:44:26.182Z,75.23
2023-03-24T01:46:56.194Z,74.54
2023-03-24T01:49:27.240Z,74.38
2023-03-24T01:51:59.072Z,79.84
2023-03-24T01:54:31.948Z,93.00
2023-03-24T01:57:05.082Z,100.00
2023-03-24T01:59:36.945Z,100.00
2023-03-24T02:02:08.285Z,100.00
2023-03-24T02:04:40.645Z,100.00
2023-03-24T02:07:17.577Z,100.00
2023-03-24T02:09:45.978Z,100.00
2023-03-24T02:12:14.793Z,100.00
2023-03-24T02:14:43.394Z,100.00
2023-03-24T02:17:33.504Z,100.00
2023-03-24T02:20:31.757Z,99.54
2023-03-24T02:23:29.180Z,100.00
2023-03-24T02:26:30.627Z,100.00
2023-03-24T02:29:11.053Z,96.51
2023-03-24T02:32:01.236Z,98.66
2023-03-24T02:35:01.379Z,94.47
2023-03-24T02:37:58.840Z,90.88
2023-03-24T02:40:41.748Z,88.72
2023-03-24T02:43:21.005Z,87.60
2023-03-24T02:46:02.763Z,88.09
2023-03-24T02:48:38.663Z,87.95
2023-03-24T02:51:13.343Z,86.31
2023-03-24T02:53:53.402Z,86.44
2023-03-24T02:56:30.272Z,86.54
2023-03-24T02:59:04.270Z,88.21
2023-03-24T03:01:38.095Z,86.47
2023-03-24T03:04:10.439Z,87.77
2023-03-24T03:06:41.561Z,87.07
2023-03-24T03:09:14.706Z,85.91
2023-03-24T03:11:48.207Z,89.59
2023-03-24T03:14:21.707Z,88.17
2023-03-24T03:16:54.671Z,88.43
2023-03-24T03:19:29.297Z,88.44
2023-03-24T03:21:59.898Z,88.74
2023-03-24T03:24:33.627Z,86.38
2023-03-24T03:27:08.422Z,85.55
2023-03-24T03:29:40.153Z,85.21
2023-03-24T03:32:14.241Z,84.61
2023-03-24T03:34:47.537Z,86.46
2023-03-24T03:37:24.422Z,86.65
2023-03-24T03:39:57.816Z,84.57
2023-03-24T03:42:27.974Z,85.04
2023-03-24T03:44:56.366Z,84.77
2023-03-24T03:47:24.821Z,83.45
2023-03-24T03:49:53.368Z,82.60
2023-03-24T03:52:22.546Z,82.75
2023-03-24T03:54:52.433Z,82.84
2023-03-24T03:57:21.634Z,81.98
2023-03-24T03:59:51.361Z,81.14
2023-03-24T04:02:35.952Z,80.60
2023-03-24T04:05:27.690Z,80.88
2023-03-24T04:08:14.931Z,79.68
2023-03-24T04:11:14.963Z,80.75
2023-03-24T04:13:53.148Z,80.38
2023-03-24T04:16:33.772Z,81.26
2023-03-24T04:19:15.021Z,84.88
2023-03-24T04:21:59.465Z,83.91
2023-03-24T04:24:40.417Z,82.37
2023-03-24T04:27:17.209Z,81.73
2023-03-24T04:29:55.564Z,81.83
2023-03-24T04:32:32.694Z,80.81
2023-03-24T04:35:07.318Z,81.10
2023-03-24T04:37:38.684Z,81.83
2023-03-24T04:40:10.906Z,89.34
2023-03-24T04:42:45.455Z,98.60
2023-03-24T04:45:15.227Z,100.00
2023-03-24T04:47:49.086Z,100.00
2023-03-24T04:50:30.593Z,100.00
2023-03-24T04:53:00.632Z,100.00
2023-03-24T04:55:45.670Z,100.00
2023-03-24T04:58:14.175Z,100.00
2023-03-24T05:00:44.455Z,96.90
2023-03-24T05:03:15.764Z,96.93
2023-03-24T05:05:49.228Z,95.78
2023-03-24T05:08:19.069Z,95.50
2023-03-24T05:10:47.795Z,95.82
2023-03-24T05:13:16.673Z,95.07
2023-03-24T05:15:47.955Z,100.00
2023-03-24T05:18:17.676Z,100.00
2023-03-24T05:20:46.037Z,100.00
2023-03-24T05:23:14.365Z,100.00
2023-03-24T05:25:43.032Z,100.00
2023-03-24T05:28:11.559Z,100.00
2023-03-24T05:30:39.915Z,97.41
2023-03-24T05:33:08.200Z,95.36
2023-03-24T05:35:38.011Z,91.87
2023-03-24T05:38:06.260Z,91.17
2023-03-24T05:40:34.615Z,89.34
2023-03-24T05:43:02.947Z,89.64
2023-03-24T05:45:31.199Z,98.66
2023-03-24T05:47:59.494Z,100.00
2023-03-24T05:50:27.877Z,100.00
2023-03-24T05:52:57.650Z,100.00
2023-03-24T05:55:26.120Z,98.43
2023-03-24T05:57:54.486Z,98.54
2023-03-24T06:00:23.562Z,100.00
2023-03-24T06:02:52.674Z,98.75
2023-03-24T06:05:21.265Z,99.20
2023-03-24T06:07:49.655Z,96.95
2023-03-24T06:10:19.568Z,96.01
2023-03-24T06:12:47.840Z,95.29
2023-03-24T06:15:17.675Z,89.95
2023-03-24T06:17:47.824Z,86.17
2023-03-24T06:20:18.605Z,83.50
2023-03-24T06:22:47.906Z,81.66
2023-03-24T06:25:20.489Z,81.15
2023-03-24T06:27:48.816Z,80.46
2023-03-24T06:30:18.684Z,77.11
2023-03-24T06:32:47.738Z,74.26
2023-03-24T06:35:17.430Z,99.54
2023-03-24T06:37:46.214Z,86.73
2023-03-24T06:40:17.799Z,79.35
2023-03-24T06:42:47.619Z,80.57
2023-03-24T06:45:15.865Z,69.09
2023-03-24T06:47:44.243Z,68.36
2023-03-24T06:50:13.042Z,67.49
2023-03-24T06:52:42.045Z,59.20
2023-03-24T06:55:11.046Z,60.15
2023-03-24T06:57:39.351Z,59.69
2023-03-24T07:00:11.717Z,58.35
2023-03-24T07:02:40.613Z,56.83
2023-03-24T07:05:11.141Z,55.52
2023-03-24T07:10:14.171Z,56.34
2023-03-24T07:12:42.949Z,55.16
2023-03-24T07:15:12.964Z,54.48
2023-03-24T07:17:42.963Z,54.59
2023-03-24T07:20:12.112Z,53.34
2023-03-24T07:22:40.397Z,52.74
2023-03-24T07:25:09.727Z,52.66
2023-03-24T07:27:39.436Z,52.06
2023-03-24T07:30:10.427Z,51.06
2023-03-24T07:32:40.579Z,49.54
2023-03-24T07:35:10.902Z,48.95
2023-03-24T07:37:39.794Z,46.67
2023-03-24T07:40:12.305Z,46.77
2023-03-24T07:42:42.278Z,46.78
2023-03-24T07:45:12.038Z,47.39
2023-03-24T07:47:45.299Z,46.96
2023-03-24T07:50:14.824Z,46.24
2023-03-24T07:52:48.183Z,45.82
2023-03-24T07:55:16.932Z,47.64
2023-03-24T07:57:48.336Z,47.57
2023-03-24T08:00:18.263Z,46.72
2023-03-24T08:02:49.665Z,44.55
2023-03-24T08:05:19.695Z,44.41
2023-03-24T08:07:53.638Z,43.42
2023-03-24T08:10:24.309Z,43.27
2023-03-24T08:12:52.633Z,43.11
2023-03-24T08:15:21.494Z,42.12
2023-03-24T08:17:52.478Z,41.84
2023-03-24T08:20:21.774Z,42.01
2023-03-24T08:22:54.297Z,40.90
2023-03-24T08:25:24.939Z,41.35
2023-03-24T08:27:53.602Z,42.68
2023-03-24T08:30:23.490Z,41.80
2023-03-24T08:32:55.305Z,41.59
2023-03-24T08:35:26.342Z,42.34
2023-03-24T08:37:54.660Z,42.53
2023-03-24T08:40:25.624Z,42.85
2023-03-24T08:42:56.281Z,41.55
2023-03-24T08:45:27.593Z,42.69
2023-03-24T08:47:59.496Z,43.53
2023-03-24T08:50:32.130Z,41.76
2023-03-24T08:53:00.568Z,40.58
2023-03-24T08:55:29.313Z,40.11
2023-03-24T08:57:57.663Z,41.41
2023-03-24T09:00:26.432Z,41.97
2023-03-24T09:02:58.615Z,41.54
2023-03-24T09:05:41.524Z,38.84
2023-03-24T09:08:13.705Z,39.15
2023-03-24T09:10:42.571Z,39.35
2023-03-24T09:13:11.571Z,39.54
2023-03-24T09:15:40.104Z,39.09
2023-03-24T09:18:09.921Z,41.04
2023-03-24T09:20:38.257Z,39.15
2023-03-24T09:23:06.621Z,40.12
2023-03-24T09:25:34.921Z,39.20
2023-03-24T09:28:03.477Z,36.99
2023-03-24T09:30:33.974Z,36.41
2023-03-24T09:33:03.622Z,34.84
2023-03-24T09:35:33.437Z,33.50
2023-03-24T09:38:01.783Z,34.92
2023-03-24T09:40:32.287Z,34.57
2023-03-24T09:43:05.692Z,34.94
2023-03-24T09:45:38.852Z,36.44
2023-03-24T09:48:12.062Z,34.90
2023-03-24T09:50:48.143Z,35.85
2023-03-24T09:53:26.125Z,34.59
2023-03-24T09:55:54.514Z,33.73
2023-03-24T09:58:25.905Z,32.24
2023-03-24T10:00:56.198Z,31.87
2023-03-24T10:03:26.194Z,30.63
2023-03-24T10:06:00.164Z,30.58
2023-03-24T10:08:33.292Z,31.19
2023-03-24T10:11:05.900Z,33.14
2023-03-24T10:13:56.982Z,29.55
2023-03-24T10:16:32.011Z,31.21
2023-03-24T10:19:11.590Z,31.43
2023-03-24T10:21:48.013Z,29.87
2023-03-24T10:24:25.245Z,29.67
2023-03-24T10:27:02.348Z,30.77
2023-03-24T10:29:32.524Z,31.06
2023-03-24T10:32:04.075Z,30.63
2023-03-24T10:34:35.278Z,30.04
2023-03-24T10:37:06.189Z,28.27
2023-03-24T10:39:44.160Z,31.53
2023-03-24T10:42:19.539Z,30.09
2023-03-24T10:44:49.676Z,30.06
2023-03-24T10:47:22.399Z,29.06
2023-03-24T10:49:55.638Z,30.37
2023-03-24T10:52:26.011Z,28.77
2023-03-24T10:54:59.012Z,30.13
2023-03-24T10:57:29.292Z,29.74
2023-03-24T11:00:00.582Z,29.25
2023-03-24T11:02:31.864Z,28.54
2023-03-24T11:05:03.812Z,29.76
2023-03-24T11:07:37.522Z,28.22
2023-03-24T11:10:17.108Z,27.17
2023-03-24T11:13:02.748Z,30.12
2023-03-24T11:15:32.356Z,30.71
2023-03-24T11:18:02.852Z,30.59
2023-03-24T11:20:33.860Z,30.85
2023-03-24T11:23:07.800Z,29.48
2023-03-24T11:25:40.304Z,30.72
2023-03-24T11:28:10.659Z,29.64
2023-03-24T11:30:48.147Z,30.08
2023-03-24T11:33:35.659Z,30.68
2023-03-24T11:36:10.270Z,30.16
2023-03-24T11:38:41.231Z,30.23
2023-03-24T11:41:23.138Z,28.62
2023-03-24T11:43:51.408Z,27.79
2023-03-24T11:46:23.556Z,27.28
2023-03-24T11:48:58.135Z,27.88
2023-03-24T11:51:31.413Z,28.12
2023-03-24T11:54:03.606Z,29.06
2023-03-24T11:56:38.722Z,28.77
2023-03-24T11:59:15.857Z,27.78
2023-03-24T12:01:50.165Z,26.96
2023-03-24T12:04:28.894Z,26.08
2023-03-24T12:07:15.800Z,26.73
2023-03-24T12:09:51.899Z,26.47
2023-03-24T12:12:28.020Z,27.27
2023-03-24T12:15:27.288Z,25.59
2023-03-24T12:18:09.927Z,27.41
2023-03-24T12:20:45.433Z,27.51
2023-03-24T12:23:19.421Z,27.31
2023-03-24T12:26:08.026Z,25.22
2023-03-24T12:28:51.427Z,26.09
2023-03-24T12:31:46.658Z,24.36
2023-03-24T12:34:36.533Z,23.82
2023-03-24T12:37:11.272Z,23.77
2023-03-24T12:39:47.081Z,25.49
2023-03-24T12:42:18.968Z,25.59
2023-03-24T12:45:06.436Z,25.83
2023-03-24T12:47:51.590Z,26.44
2023-03-24T12:50:28.405Z,25.39
2023-03-24T12:53:27.630Z,26.93
2023-03-24T12:55:59.539Z,27.81
2023-03-24T12:58:36.649Z,28.54
2023-03-24T13:01:08.857Z,28.67
2023-03-24T13:03:41.669Z,27.23
2023-03-24T13:06:17.946Z,27.00
2023-03-24T13:08:54.547Z,28.30
2023-03-24T13:11:33.179Z,29.41
2023-03-24T13:14:05.077Z,30.32
2023-03-24T13:16:37.384Z,30.87
2023-03-24T13:19:14.285Z,30.92
2023-03-24T13:21:43.706Z,30.65
2023-03-24T13:24:15.276Z,30.30
2023-03-24T13:26:52.541Z,30.28
2023-03-24T13:29:45.717Z,29.63
2023-03-24T13:32:30.624Z,28.70
2023-03-24T13:35:06.680Z,28.08
2023-03-24T13:37:38.070Z,28.50
2023-03-24T13:40:12.353Z,27.15
2023-03-24T13:42:47.022Z,26.69
2023-03-24T13:45:42.912Z,25.27
2023-03-24T13:48:25.022Z,26.42
2023-03-24T13:50:58.168Z,26.69
2023-03-24T13:53:38.018Z,27.40
2023-03-24T13:56:09.116Z,28.13
2023-03-24T13:59:06.196Z,28.04
2023-03-24T14:01:38.745Z,27.54
2023-03-24T14:04:26.223Z,27.63
2023-03-24T14:06:55.881Z,28.16
2023-03-24T14:09:26.483Z,29.18
2023-03-24T14:12:19.136Z,28.97
2023-03-24T14:15:19.502Z,28.35
2023-03-24T14:17:50.820Z,28.28
2023-03-24T14:20:34.481Z,27.36
2023-03-24T14:23:04.560Z,27.00
2023-03-24T14:25:34.198Z,27.13
2023-03-24T14:28:19.897Z,27.23
2023-03-24T14:31:15.723Z,29.99
2023-03-24T14:34:03.341Z,29.47
2023-03-24T14:36:35.292Z,27.77
2023-03-24T14:39:22.445Z,29.15
2023-03-24T14:41:52.748Z,29.21
2023-03-24T14:44:54.606Z,28.53
2023-03-24T14:47:24.668Z,28.42
2023-03-24T14:49:56.070Z,31.15
2023-03-24T14:52:29.057Z,30.97
2023-03-24T14:54:59.877Z,31.74
2023-03-24T14:57:30.601Z,31.02
2023-03-24T15:00:10.699Z,31.17
2023-03-24T15:02:42.336Z,32.35
2023-03-24T15:05:25.222Z,32.26
2023-03-24T15:08:13.580Z,31.33
2023-03-24T15:10:46.457Z,32.25
2023-03-24T15:13:41.159Z,32.44
2023-03-24T15:16:19.618Z,32.17
2023-03-24T15:19:00.470Z,31.63
2023-03-24T15:21:34.951Z,32.70
2023-03-24T15:24:04.701Z,32.51
2023-03-24T15:26:33.594Z,32.73
2023-03-24T15:29:04.074Z,33.45
2023-03-24T15:31:33.236Z,34.52
2023-03-24T15:34:25.097Z,33.30
2023-03-24T15:36:57.810Z,34.75
2023-03-24T15:39:29.169Z,33.68
2023-03-24T15:41:57.544Z,37.70
2023-03-24T15:44:29.023Z,35.76
2023-03-24T15:46:59.419Z,37.64
2023-03-24T15:49:31.396Z,37.17
2023-03-24T15:52:03.353Z,37.64
2023-03-24T15:54:33.310Z,38.10
2023-03-24T15:57:04.139Z,42.66
2023-03-24T15:59:37.225Z,42.78
2023-03-24T16:02:12.825Z,42.57
2023-03-24T16:04:42.472Z,44.21
2023-03-24T16:07:29.745Z,45.05
2023-03-24T16:10:02.941Z,45.51
2023-03-24T16:12:31.347Z,46.20
2023-03-24T16:14:59.781Z,46.29
2023-03-24T16:17:28.190Z,46.97
2023-03-24T16:19:59.938Z,47.51
2023-03-24T16:22:29.920Z,47.00
2023-03-24T16:24:58.348Z,47.02
2023-03-24T16:27:26.686Z,50.37
2023-03-24T16:29:55.951Z,48.04
2023-03-24T16:32:24.366Z,49.76
2023-03-24T16:34:52.821Z,50.16
2023-03-24T16:37:21.069Z,50.26
2023-03-24T16:39:50.759Z,50.84
2023-03-24T16:42:19.027Z,51.48
2023-03-24T16:44:47.761Z,51.27
2023-03-24T16:47:16.105Z,51.88
2023-03-24T16:49:44.419Z,50.16
2023-03-24T16:52:14.180Z,50.37
2023-03-24T16:54:42.631Z,50.95
2023-03-24T16:57:12.441Z,52.12
2023-03-24T16:59:42.000Z,50.54
2023-03-24T17:02:11.468Z,50.10
2023-03-24T17:04:41.309Z,52.07
2023-03-24T17:07:09.899Z,52.08
2023-03-24T17:09:38.121Z,52.93
2023-03-24T17:12:06.717Z,51.97
2023-03-24T17:14:36.500Z,53.50
2023-03-24T17:17:11.579Z,54.42
2023-03-24T17:19:42.085Z,52.99
2023-03-24T17:22:11.796Z,52.85
2023-03-24T17:24:42.381Z,53.90
2023-03-24T17:27:14.439Z,54.22
2023-03-24T17:29:44.089Z,54.51
2023-03-24T17:32:12.480Z,53.90
2023-03-24T17:34:43.003Z,54.41
2023-03-24T17:37:11.404Z,54.48
2023-03-24T17:39:40.533Z,54.58
2023-03-24T17:42:09.008Z,54.36
2023-03-24T17:44:37.733Z,54.33
2023-03-24T17:47:07.615Z,55.50
2023-03-24T17:49:35.959Z,56.32
2023-03-24T17:52:04.425Z,56.00
2023-03-24T17:54:33.918Z,56.69
2023-03-24T17:57:02.346Z,57.51
2023-03-24T17:59:30.797Z,58.30
2023-03-24T18:01:59.082Z,58.19
2023-03-24T18:04:29.373Z,58.61
2023-03-24T18:06:58.313Z,59.40
2023-03-24T18:09:27.145Z,58.78
2023-03-24T18:11:55.548Z,57.31
2023-03-24T18:14:23.852Z,56.56
2023-03-24T18:16:52.190Z,57.58
2023-03-24T18:19:20.590Z,58.91
2023-03-24T18:21:50.352Z,58.26
2023-03-24T18:24:18.996Z,58.13
2023-03-24T18:26:49.201Z,58.69
2023-03-24T18:29:22.179Z,58.89
2023-03-24T18:31:50.572Z,59.01
2023-03-24T18:34:19.753Z,59.66
2023-03-24T18:36:50.253Z,60.36
2023-03-24T18:39:18.904Z,61.77
2023-03-24T18:41:48.173Z,60.22
2023-03-24T18:44:16.996Z,59.77
2023-03-24T18:46:45.548Z,60.99
2023-03-24T18:49:14.697Z,60.74
2023-03-24T18:51:43.626Z,61.56
2023-03-24T18:54:14.308Z,62.45
2023-03-24T18:56:42.779Z,62.13
2023-03-24T18:59:11.793Z,61.66
2023-03-24T19:01:40.380Z,62.51
2023-03-24T19:04:09.472Z,62.90
2023-03-24T19:06:42.497Z,62.33
2023-03-24T19:09:13.666Z,63.63
2023-03-24T19:11:43.534Z,63.01
2023-03-24T19:14:12.144Z,62.62
2023-03-24T19:16:40.560Z,62.66
2023-03-24T19:19:09.970Z,63.09
2023-03-24T19:21:38.577Z,64.26
2023-03-24T19:24:07.604Z,63.64
2023-03-24T19:26:37.412Z,64.81
2023-03-24T19:29:06.446Z,64.81
2023-03-24T19:31:35.250Z,64.81
2023-03-24T19:34:06.760Z,65.64
2023-03-24T19:36:35.330Z,64.85
2023-03-24T19:39:04.601Z,64.46
2023-03-24T19:41:32.942Z,65.66
2023-03-24T19:44:02.659Z,64.68
2023-03-24T19:46:33.774Z,63.47
2023-03-24T19:49:02.280Z,63.27
2023-03-24T19:51:30.833Z,63.45
2023-03-24T19:53:59.066Z,64.33
2023-03-24T19:56:27.403Z,64.36
2023-03-24T19:58:55.902Z,64.93
2023-03-24T20:01:26.159Z,65.19
2023-03-24T20:03:54.675Z,65.21
2023-03-24T20:06:22.989Z,64.43
2023-03-24T20:08:51.502Z,64.05
2023-03-24T20:11:19.989Z,64.48
2023-03-24T20:13:48.500Z,65.95
2023-03-24T20:16:16.771Z,65.89
2023-03-24T20:18:46.664Z,64.99
2023-03-24T20:21:20.640Z,63.60
2023-03-24T20:23:48.917Z,63.00
2023-03-24T20:26:17.345Z,63.69
2023-03-24T20:28:45.893Z,63.75
2023-03-24T20:31:15.073Z,64.36
2023-03-24T20:33:43.354Z,63.37
2023-03-24T20:36:13.182Z,63.39
2023-03-24T20:38:41.657Z,63.72
2023-03-24T20:41:10.141Z,64.05
2023-03-24T20:43:39.151Z,63.39
2023-03-24T20:46:11.718Z,64.75
2023-03-24T20:48:40.105Z,64.96
2023-03-24T20:51:08.568Z,64.34
2023-03-24T20:53:40.743Z,63.76
2023-03-24T20:56:13.374Z,63.40
2023-03-24T20:58:42.452Z,63.68
2023-03-24T21:01:20.759Z,64.63
2023-03-24T21:03:49.942Z,65.00
2023-03-24T21:06:19.360Z,64.48
2023-03-24T21:08:49.530Z,63.82
2023-03-24T21:11:17.911Z,64.63
2023-03-24T21:13:46.445Z,65.53
2023-03-24T21:16:15.148Z,64.14
2023-03-24T21:18:44.054Z,63.71
2023-03-24T21:21:13.558Z,63.15
2023-03-24T21:23:43.076Z,63.30
2023-03-24T21:26:15.839Z,63.12
2023-03-24T21:28:44.729Z,63.18
2023-03-24T21:31:18.142Z,64.69
2023-03-24T21:33:46.538Z,64.01
2023-03-24T21:36:15.791Z,63.54
2023-03-24T21:38:44.643Z,62.90
2023-03-24T21:41:14.396Z,62.84
2023-03-24T21:43:47.011Z,63.05
2023-03-24T21:46:20.758Z,62.99
2023-03-24T21:48:51.941Z,63.44
2023-03-24T21:51:24.152Z,63.12
2023-03-24T21:53:55.727Z,63.26
2023-03-24T21:56:25.604Z,63.50
2023-03-24T21:58:55.675Z,63.09
2023-03-24T22:01:24.583Z,63.92
2023-03-24T22:03:54.814Z,63.99
2023-03-24T22:06:23.962Z,64.23
2023-03-24T22:08:53.362Z,64.42
2023-03-24T22:11:25.130Z,64.54
2023-03-24T22:13:54.863Z,64.67
2023-03-24T22:16:23.133Z,65.19
2023-03-24T22:18:53.123Z,65.74
2023-03-24T22:21:21.755Z,65.65
2023-03-24T22:23:50.047Z,65.48
2023-03-24T22:26:18.356Z,64.88
2023-03-24T22:28:46.724Z,64.49
2023-03-24T22:31:18.036Z,65.22
2023-03-24T22:33:48.135Z,65.12
2023-03-24T22:36:16.504Z,65.43
2023-03-24T22:38:44.828Z,65.49
2023-03-24T22:41:14.271Z,66.58
2023-03-24T22:43:42.819Z,66.69
2023-03-24T22:46:12.110Z,69.03
2023-03-24T22:48:42.083Z,70.35
2023-03-24T22:51:12.659Z,70.31
2023-03-24T22:53:41.837Z,72.98
2023-03-24T22:56:10.589Z,70.85
2023-03-24T22:58:40.271Z,72.02
2023-03-24T23:01:09.787Z,76.61
2023-03-24T23:03:38.303Z,75.09
2023-03-24T23:06:09.315Z,74.74
2023-03-24T23:08:38.782Z,77.03
2023-03-24T23:11:08.750Z,77.14
2023-03-24T23:13:38.906Z,75.46
2023-03-24T23:16:08.288Z,73.92
2023-03-24T23:18:37.025Z,72.85
2023-03-24T23:21:09.387Z,71.80
2023-03-24T23:23:38.653Z,70.94
2023-03-24T23:26:25.224Z,71.86
2023-03-24T23:28:55.177Z,71.76
2023-03-24T23:31:25.100Z,71.30
2023-03-24T23:33:56.211Z,71.39
2023-03-24T23:36:28.574Z,71.37
2023-03-24T23:38:57.025Z,70.74
2023-03-24T23:41:25.483Z,71.35
2023-03-24T23:43:55.970Z,71.84
2023-03-24T23:46:25.200Z,73.73
2023-03-24T23:48:53.605Z,76.88
2023-03-24T23:51:22.261Z,78.04
2023-03-24T23:53:52.108Z,76.02
2023-03-24T23:56:23.035Z,74.61
2023-03-24T23:58:51.346Z,74.74
